Página principal
METAR-TAF:

METAR-TAF

Aeroportos :

Pointe-à-Pitre, Guadalupe

Aeroporto Internacional de Pointe-à-Pitre

latitude: 16-16N, longitude: 061-31W, altura: 11 m

Observação actual do tempo

O boletim foi feito há 21 minutos, às 13:00 UTC
Vento 7 kt de es-sudeste
Temperatura 27°C
Humidade 79%
Pressão 1017 hPa
Visibilidade 10 km ou mais
Poucas nuvensa uma altura de 2500 ft

METAR: TFFR 191300Z AUTO 11007KT 9999 FEW025 27/23 Q1017 TEMPO 4000 SHRA SCT015TCU

Hora: 09:21 (13:21 UTC)

Previsão

O boletim foi feito há 2 horas e 21 minutos, às 11:00 UTC
Previsão válida de 19 às 12 UTC a 20 às 12 UTC
Vento 7 kt de es-sudeste
Visibilidade 10 km ou mais
Nuvens dispersasa uma altura de 3000 ft
Temporariamente
de 19 às 12 UTC a 19 às 18 UTC
Visibilidade: 4000 m
Nuvens dispersasa uma altura de 1500 ft, Cumulus congestus.
aguaceiros de chuva

TAF: TFFR 191100Z 1912/2012 11007KT 9999 SCT030 TEMPO 1912/1918 4000 SHRA SCT015TCU

Observações e previsões do tempo de mais de 4000 aeroportos (mensagens METAR e TAF).

As estações disponíveis são os pontos amarelos e vermelhos sobre o mapa.

Mova o rato sobre o mapa para ver o nome da estação.

Depois clique no ponto para visualizar as observações e previsões meteorológicas.

Para alterar o mapa : clique nos botões verdes com uma cruz preta para aumentar o zoom; no botão verde com uma pitada de zoom; ou nas setas verdes para mapas adjacentes.


METAR-TAF: